sensor_id;sensor_type;location;lat;lon;timestamp;pressure;altitude;pressure_sealevel;temperature;humidity
43119;BME280;28729;49.838;8.650;2024-02-14T00:03:49;100146.69;;;6.68;85.88
43119;BME280;28729;49.838;8.650;2024-02-14T00:07:51;100145.44;;;6.71;86.23
43119;BME280;28729;49.838;8.650;2024-02-14T00:11:53;100140.34;;;6.74;87.14
43119;BME280;28729;49.838;8.650;2024-02-14T00:15:55;100136.75;;;6.80;86.93
43119;BME280;28729;49.838;8.650;2024-02-14T00:19:58;100141.59;;;6.85;87.53
43119;BME280;28729;49.838;8.650;2024-02-14T00:24:00;100140.91;;;6.90;87.33
43119;BME280;28729;49.838;8.650;2024-02-14T00:28:03;100139.25;;;6.89;88.00
43119;BME280;28729;49.838;8.650;2024-02-14T00:32:06;100135.00;;;6.93;88.12
43119;BME280;28729;49.838;8.650;2024-02-14T00:36:08;100136.72;;;6.94;88.04
43119;BME280;28729;49.838;8.650;2024-02-14T00:40:10;100133.53;;;6.97;88.21
43119;BME280;28729;49.838;8.650;2024-02-14T00:44:13;100140.03;;;7.02;88.02
43119;BME280;28729;49.838;8.650;2024-02-14T00:48:18;100127.16;;;7.03;88.85
43119;BME280;28729;49.838;8.650;2024-02-14T00:52:20;100133.28;;;7.05;88.41
43119;BME280;28729;49.838;8.650;2024-02-14T00:56:23;100123.75;;;7.14;87.91
43119;BME280;28729;49.838;8.650;2024-02-14T01:00:25;100121.16;;;7.26;87.37
43119;BME280;28729;49.838;8.650;2024-02-14T01:04:27;100115.38;;;7.34;86.74
43119;BME280;28729;49.838;8.650;2024-02-14T01:08:29;100107.56;;;7.38;86.86
43119;BME280;28729;49.838;8.650;2024-02-14T01:12:31;100104.72;;;7.51;86.53
43119;BME280;28729;49.838;8.650;2024-02-14T01:16:33;100102.31;;;7.61;86.64
43119;BME280;28729;49.838;8.650;2024-02-14T01:20:35;100097.00;;;7.66;87.44
43119;BME280;28729;49.838;8.650;2024-02-14T01:24:37;100092.97;;;7.69;88.76
43119;BME280;28729;49.838;8.650;2024-02-14T01:28:38;100085.38;;;7.71;88.77
43119;BME280;28729;49.838;8.650;2024-02-14T01:32:40;100075.84;;;7.73;88.88
43119;BME280;28729;49.838;8.650;2024-02-14T01:36:42;100067.56;;;7.80;87.31
43119;BME280;28729;49.838;8.650;2024-02-14T01:40:44;100066.75;;;7.98;86.84
43119;BME280;28729;49.838;8.650;2024-02-14T01:44:46;100061.56;;;8.08;85.57
43119;BME280;28729;49.838;8.650;2024-02-14T01:48:48;100059.13;;;8.18;85.16
43119;BME280;28729;49.838;8.650;2024-02-14T01:52:50;100054.56;;;8.31;84.37
43119;BME280;28729;49.838;8.650;2024-02-14T01:56:53;100058.94;;;8.38;83.44
43119;BME280;28729;49.838;8.650;2024-02-14T02:00:56;100044.44;;;8.50;82.98
43119;BME280;28729;49.838;8.650;2024-02-14T02:05:01;100038.84;;;8.56;82.59
43119;BME280;28729;49.838;8.650;2024-02-14T02:09:03;100038.53;;;8.64;81.80
43119;BME280;28729;49.838;8.650;2024-02-14T02:13:05;100042.25;;;8.70;81.12
43119;BME280;28729;49.838;8.650;2024-02-14T02:17:07;100033.56;;;8.73;80.68
43119;BME280;28729;49.838;8.650;2024-02-14T02:21:09;100034.63;;;8.72;80.04
43119;BME280;28729;49.838;8.650;2024-02-14T02:25:14;100031.28;;;8.70;80.08
43119;BME280;28729;49.838;8.650;2024-02-14T02:29:16;100025.25;;;8.61;80.33
43119;BME280;28729;49.838;8.650;2024-02-14T02:33:18;100024.22;;;8.44;80.99
43119;BME280;28729;49.838;8.650;2024-02-14T02:37:20;100034.97;;;8.27;82.11
43119;BME280;28729;49.838;8.650;2024-02-14T02:41:22;100027.41;;;8.22;82.98
43119;BME280;28729;49.838;8.650;2024-02-14T02:45:23;100031.78;;;8.30;83.00
43119;BME280;28729;49.838;8.650;2024-02-14T02:49:26;100048.16;;;8.37;83.35
43119;BME280;28729;49.838;8.650;2024-02-14T02:53:28;100045.59;;;8.42;83.11
43119;BME280;28729;49.838;8.650;2024-02-14T02:57:29;100052.91;;;8.48;82.91
43119;BME280;28729;49.838;8.650;2024-02-14T03:01:37;100060.22;;;8.54;83.09
43119;BME280;28729;49.838;8.650;2024-02-14T03:05:38;100057.59;;;8.59;82.91
43119;BME280;28729;49.838;8.650;2024-02-14T03:09:40;100061.59;;;8.63;82.67
43119;BME280;28729;49.838;8.650;2024-02-14T03:13:42;100058.75;;;8.70;82.41
43119;BME280;28729;49.838;8.650;2024-02-14T03:17:46;100067.38;;;8.74;82.50
43119;BME280;28729;49.838;8.650;2024-02-14T03:21:48;100070.63;;;8.82;81.98
43119;BME280;28729;49.838;8.650;2024-02-14T03:25:49;100062.84;;;8.79;82.03
43119;BME280;28729;49.838;8.650;2024-02-14T03:29:53;100072.75;;;8.80;82.13
43119;BME280;28729;49.838;8.650;2024-02-14T03:33:56;100071.88;;;8.86;81.74
43119;BME280;28729;49.838;8.650;2024-02-14T03:38:00;100066.59;;;8.85;81.63
43119;BME280;28729;49.838;8.650;2024-02-14T03:42:03;100071.41;;;8.89;81.34
43119;BME280;28729;49.838;8.650;2024-02-14T03:46:09;100074.16;;;8.89;81.09
43119;BME280;28729;49.838;8.650;2024-02-14T03:50:11;100070.81;;;8.99;80.99
43119;BME280;28729;49.838;8.650;2024-02-14T03:54:12;100078.00;;;9.00;80.74
43119;BME280;28729;49.838;8.650;2024-02-14T03:58:15;100075.03;;;9.02;80.40
43119;BME280;28729;49.838;8.650;2024-02-14T04:02:18;100075.03;;;9.02;80.33
43119;BME280;28729;49.838;8.650;2024-02-14T04:06:20;100078.75;;;9.07;80.04
43119;BME280;28729;49.838;8.650;2024-02-14T04:10:22;100078.50;;;9.09;80.22
43119;BME280;28729;49.838;8.650;2024-02-14T04:14:24;100077.44;;;9.10;80.29
43119;BME280;28729;49.838;8.650;2024-02-14T04:18:26;100070.25;;;9.09;79.73
43119;BME280;28729;49.838;8.650;2024-02-14T04:22:28;100073.38;;;9.12;79.93
43119;BME280;28729;49.838;8.650;2024-02-14T04:26:30;100080.56;;;9.13;79.86
43119;BME280;28729;49.838;8.650;2024-02-14T04:30:32;100087.72;;;9.15;79.65
43119;BME280;28729;49.838;8.650;2024-02-14T04:34:34;100084.16;;;9.14;80.13
43119;BME280;28729;49.838;8.650;2024-02-14T04:38:36;100088.34;;;9.17;80.08
43119;BME280;28729;49.838;8.650;2024-02-14T04:42:38;100087.13;;;9.12;80.34
43119;BME280;28729;49.838;8.650;2024-02-14T04:46:40;100114.63;;;9.12;80.55
43119;BME280;28729;49.838;8.650;2024-02-14T04:50:45;100107.19;;;9.13;80.65
43119;BME280;28729;49.838;8.650;2024-02-14T04:54:47;100101.94;;;9.11;81.05
43119;BME280;28729;49.838;8.650;2024-02-14T04:58:48;100102.16;;;9.10;81.60
43119;BME280;28729;49.838;8.650;2024-02-14T05:02:50;100111.59;;;9.02;82.31
43119;BME280;28729;49.838;8.650;2024-02-14T05:06:52;100109.47;;;9.04;82.36
43119;BME280;28729;49.838;8.650;2024-02-14T05:10:59;100110.50;;;9.03;82.66
43119;BME280;28729;49.838;8.650;2024-02-14T05:15:01;100109.94;;;9.01;83.04
43119;BME280;28729;49.838;8.650;2024-02-14T05:19:04;100105.13;;;8.97;83.59
43119;BME280;28729;49.838;8.650;2024-02-14T05:23:06;100096.63;;;8.98;83.90
43119;BME280;28729;49.838;8.650;2024-02-14T05:27:08;100093.28;;;8.96;84.77
43119;BME280;28729;49.838;8.650;2024-02-14T05:31:10;100096.56;;;9.05;85.25
43119;BME280;28729;49.838;8.650;2024-02-14T05:35:12;100100.81;;;9.01;86.31
43119;BME280;28729;49.838;8.650;2024-02-14T05:39:14;100104.88;;;8.98;86.80
43119;BME280;28729;49.838;8.650;2024-02-14T05:43:16;100101.75;;;8.95;87.18
43119;BME280;28729;49.838;8.650;2024-02-14T05:47:19;100091.22;;;8.92;87.43
43119;BME280;28729;49.838;8.650;2024-02-14T05:51:21;100095.66;;;8.93;87.08
43119;BME280;28729;49.838;8.650;2024-02-14T05:55:24;100092.06;;;8.92;87.08
43119;BME280;28729;49.838;8.650;2024-02-14T05:59:26;100105.31;;;8.95;87.83
43119;BME280;28729;49.838;8.650;2024-02-14T06:03:27;100093.28;;;8.96;87.97
43119;BME280;28729;49.838;8.650;2024-02-14T06:07:30;100095.78;;;8.98;87.41
43119;BME280;28729;49.838;8.650;2024-02-14T06:11:32;100101.28;;;8.98;86.99
43119;BME280;28729;49.838;8.650;2024-02-14T06:15:33;100104.88;;;8.98;86.52
43119;BME280;28729;49.838;8.650;2024-02-14T06:19:35;100115.84;;;8.98;86.15
43119;BME280;28729;49.838;8.650;2024-02-14T06:23:41;100124.56;;;8.95;89.17
43119;BME280;28729;49.838;8.650;2024-02-14T06:27:43;100124.75;;;8.82;93.97
43119;BME280;28729;49.838;8.650;2024-02-14T06:31:46;100129.66;;;8.61;100.00
43119;BME280;28729;49.838;8.650;2024-02-14T06:35:48;100137.97;;;8.55;100.00
43119;BME280;28729;49.838;8.650;2024-02-14T06:39:50;100137.44;;;8.46;100.00
43119;BME280;28729;49.838;8.650;2024-02-14T06:43:52;100135.34;;;8.41;100.00
43119;BME280;28729;49.838;8.650;2024-02-14T06:47:54;100144.22;;;8.43;100.00
43119;BME280;28729;49.838;8.650;2024-02-14T06:51:56;100147.66;;;8.39;100.00
43119;BME280;28729;49.838;8.650;2024-02-14T06:55:58;100148.03;;;8.42;100.00
43119;BME280;28729;49.838;8.650;2024-02-14T07:00:00;100156.81;;;8.51;100.00
43119;BME280;28729;49.838;8.650;2024-02-14T07:04:02;100161.84;;;8.54;100.00
43119;BME280;28729;49.838;8.650;2024-02-14T07:08:05;100162.22;;;8.58;100.00
43119;BME280;28729;49.838;8.650;2024-02-14T07:12:07;100164.75;;;8.59;99.84
43119;BME280;28729;49.838;8.650;2024-02-14T07:16:09;100168.44;;;8.72;98.79
43119;BME280;28729;49.838;8.650;2024-02-14T07:20:12;100165.81;;;8.77;98.49
43119;BME280;28729;49.838;8.650;2024-02-14T07:24:15;100170.00;;;8.79;98.51
43119;BME280;28729;49.838;8.650;2024-02-14T07:28:17;100173.75;;;8.85;97.72
43119;BME280;28729;49.838;8.650;2024-02-14T07:32:20;100174.50;;;8.92;97.19
43119;BME280;28729;49.838;8.650;2024-02-14T07:36:22;100175.50;;;8.98;96.95
43119;BME280;28729;49.838;8.650;2024-02-14T07:40:24;100176.47;;;9.03;95.93
43119;BME280;28729;49.838;8.650;2024-02-14T07:44:25;100173.53;;;9.05;95.26
43119;BME280;28729;49.838;8.650;2024-02-14T07:48:27;100177.72;;;9.07;95.59
43119;BME280;28729;49.838;8.650;2024-02-14T07:52:29;100181.31;;;9.08;95.43
43119;BME280;28729;49.838;8.650;2024-02-14T07:56:34;100180.59;;;9.12;95.65
43119;BME280;28729;49.838;8.650;2024-02-14T08:00:36;100178.25;;;9.16;95.96
43119;BME280;28729;49.838;8.650;2024-02-14T08:04:38;100192.81;;;9.17;96.82
43119;BME280;28729;49.838;8.650;2024-02-14T08:08:39;100183.75;;;9.16;98.26
43119;BME280;28729;49.838;8.650;2024-02-14T08:12:41;100173.69;;;9.22;99.30
43119;BME280;28729;49.838;8.650;2024-02-14T08:16:43;100179.66;;;9.37;99.12
43119;BME280;28729;49.838;8.650;2024-02-14T08:20:45;100179.78;;;9.42;99.13
43119;BME280;28729;49.838;8.650;2024-02-14T08:24:47;100184.44;;;9.42;99.49
43119;BME280;28729;49.838;8.650;2024-02-14T08:28:49;100191.13;;;9.46;99.87
43119;BME280;28729;49.838;8.650;2024-02-14T08:32:50;100185.75;;;9.39;100.00
43119;BME280;28729;49.838;8.650;2024-02-14T08:36:52;100196.75;;;9.39;100.00
43119;BME280;28729;49.838;8.650;2024-02-14T08:40:54;100192.84;;;9.47;100.00
43119;BME280;28729;49.838;8.650;2024-02-14T08:44:56;100192.28;;;9.56;99.42
43119;BME280;28729;49.838;8.650;2024-02-14T08:49:00;100193.47;;;9.61;99.07
43119;BME280;28729;49.838;8.650;2024-02-14T08:53:04;100192.41;;;9.62;99.08
43119;BME280;28729;49.838;8.650;2024-02-14T08:57:06;100194.56;;;9.59;99.42
43119;BME280;28729;49.838;8.650;2024-02-14T09:01:09;100187.06;;;9.67;99.35
43119;BME280;28729;49.838;8.650;2024-02-14T09:05:16;100179.63;;;9.67;100.00
43119;BME280;28729;49.838;8.650;2024-02-14T09:09:19;100187.81;;;9.86;99.06
43119;BME280;28729;49.838;8.650;2024-02-14T09:13:20;100193.25;;;10.16;97.72
43119;BME280;28729;49.838;8.650;2024-02-14T09:17:23;100194.59;;;10.37;96.48
43119;BME280;28729;49.838;8.650;2024-02-14T09:21:24;100200.25;;;10.42;95.96
43119;BME280;28729;49.838;8.650;2024-02-14T09:25:27;100194.47;;;10.43;96.01
43119;BME280;28729;49.838;8.650;2024-02-14T09:29:29;100189.56;;;10.45;96.66
43119;BME280;28729;49.838;8.650;2024-02-14T09:33:30;100202.75;;;10.55;96.66
43119;BME280;28729;49.838;8.650;2024-02-14T09:37:33;100205.28;;;10.57;96.90
43119;BME280;28729;49.838;8.650;2024-02-14T09:41:40;100215.81;;;10.60;97.61
43119;BME280;28729;49.838;8.650;2024-02-14T09:45:45;100210.03;;;10.73;96.85
43119;BME280;28729;49.838;8.650;2024-02-14T09:49:47;100213.03;;;10.83;96.94
43119;BME280;28729;49.838;8.650;2024-02-14T09:53:50;100223.81;;;10.73;98.04
43119;BME280;28729;49.838;8.650;2024-02-14T09:57:52;100211.97;;;10.61;99.04
43119;BME280;28729;49.838;8.650;2024-02-14T10:01:55;100220.25;;;10.61;100.00
43119;BME280;28729;49.838;8.650;2024-02-14T10:05:57;100211.63;;;10.69;100.00
43119;BME280;28729;49.838;8.650;2024-02-14T10:10:06;100223.47;;;10.81;99.74
43119;BME280;28729;49.838;8.650;2024-02-14T10:14:08;100222.00;;;11.02;99.41
43119;BME280;28729;49.838;8.650;2024-02-14T10:18:14;100219.09;;;11.09;99.11
43119;BME280;28729;49.838;8.650;2024-02-14T10:22:17;100216.91;;;11.23;98.79
43119;BME280;28729;49.838;8.650;2024-02-14T10:26:19;100226.59;;;11.37;97.80
43119;BME280;28729;49.838;8.650;2024-02-14T10:30:21;100222.72;;;11.38;97.37
43119;BME280;28729;49.838;8.650;2024-02-14T10:34:25;100229.03;;;11.50;97.11
43119;BME280;28729;49.838;8.650;2024-02-14T10:38:32;100228.72;;;11.47;97.24
43119;BME280;28729;49.838;8.650;2024-02-14T10:42:36;100249.94;;;11.46;97.15
43119;BME280;28729;49.838;8.650;2024-02-14T10:46:39;100251.56;;;11.59;96.70
43119;BME280;28729;49.838;8.650;2024-02-14T10:50:42;100259.38;;;11.62;95.81
43119;BME280;28729;49.838;8.650;2024-02-14T10:54:55;100256.06;;;11.48;96.57
43119;BME280;28729;49.838;8.650;2024-02-14T10:58:58;100242.75;;;11.45;97.94
43119;BME280;28729;49.838;8.650;2024-02-14T11:03:01;100234.53;;;11.62;97.93
43119;BME280;28729;49.838;8.650;2024-02-14T11:07:09;100244.69;;;11.73;97.46
43119;BME280;28729;49.838;8.650;2024-02-14T11:11:11;100244.34;;;11.70;97.08
43119;BME280;28729;49.838;8.650;2024-02-14T11:15:22;100236.06;;;11.70;97.99
43119;BME280;28729;49.838;8.650;2024-02-14T11:19:31;100242.34;;;11.94;97.19
43119;BME280;28729;49.838;8.650;2024-02-14T11:23:38;100246.59;;;12.01;97.20
43119;BME280;28729;49.838;8.650;2024-02-14T11:27:45;100237.66;;;12.28;96.20
43119;BME280;28729;49.838;8.650;2024-02-14T11:31:47;100224.69;;;12.45;95.90
43119;BME280;28729;49.838;8.650;2024-02-14T11:35:50;100209.56;;;12.70;94.08
43119;BME280;28729;49.838;8.650;2024-02-14T11:39:53;100206.97;;;12.80;93.69
43119;BME280;28729;49.838;8.650;2024-02-14T11:43:55;100208.72;;;13.08;92.96
43119;BME280;28729;49.838;8.650;2024-02-14T11:47:57;100205.72;;;13.54;90.71
43119;BME280;28729;49.838;8.650;2024-02-14T11:51:59;100203.88;;;13.91;88.47
43119;BME280;28729;49.838;8.650;2024-02-14T11:56:00;100204.75;;;13.92;nan
43119;BME280;28729;49.838;8.650;2024-02-14T12:00:02;100205.75;;;13.86;86.38
43119;BME280;28729;49.838;8.650;2024-02-14T12:04:10;100205.75;;;13.86;87.23
43119;BME280;28729;49.838;8.650;2024-02-14T12:08:12;100208.44;;;13.76;87.04
43119;BME280;28729;49.838;8.650;2024-02-14T12:12:15;100215.94;;;13.53;87.70
43119;BME280;28729;49.838;8.650;2024-02-14T12:16:19;100225.28;;;13.47;88.98
43119;BME280;28729;49.838;8.650;2024-02-14T12:20:22;100231.03;;;13.40;89.60
43119;BME280;28729;49.838;8.650;2024-02-14T12:24:27;100207.16;;;13.34;90.71
43119;BME280;28729;49.838;8.650;2024-02-14T12:28:31;100211.78;;;13.29;91.83
43119;BME280;28729;49.838;8.650;2024-02-14T12:32:33;100210.94;;;13.06;93.26
43119;BME280;28729;49.838;8.650;2024-02-14T12:36:36;100211.38;;;12.98;93.45
43119;BME280;28729;49.838;8.650;2024-02-14T12:40:38;100208.06;;;12.79;94.90
43119;BME280;28729;49.838;8.650;2024-02-14T12:44:43;100202.16;;;12.70;95.96
43119;BME280;28729;49.838;8.650;2024-02-14T12:48:45;100199.38;;;12.70;96.32
43119;BME280;28729;49.838;8.650;2024-02-14T12:52:46;100200.53;;;12.74;95.96
43119;BME280;28729;49.838;8.650;2024-02-14T12:56:50;100212.28;;;12.65;96.56
43119;BME280;28729;49.838;8.650;2024-02-14T13:00:52;100205.00;;;12.59;97.12
43119;BME280;28729;49.838;8.650;2024-02-14T13:04:54;100209.63;;;12.53;98.33
43119;BME280;28729;49.838;8.650;2024-02-14T13:08:55;100215.16;;;12.53;98.63
43119;BME280;28729;49.838;8.650;2024-02-14T13:12:57;100210.13;;;12.50;99.44
43119;BME280;28729;49.838;8.650;2024-02-14T13:17:01;100205.34;;;12.45;100.00
43119;BME280;28729;49.838;8.650;2024-02-14T13:21:03;100195.06;;;12.41;100.00
43119;BME280;28729;49.838;8.650;2024-02-14T13:25:05;100206.53;;;12.32;100.00
43119;BME280;28729;49.838;8.650;2024-02-14T13:29:07;100198.56;;;12.19;100.00
43119;BME280;28729;49.838;8.650;2024-02-14T13:33:09;100212.38;;;12.02;100.00
43119;BME280;28729;49.838;8.650;2024-02-14T13:37:13;100204.50;;;11.94;100.00
43119;BME280;28729;49.838;8.650;2024-02-14T13:41:21;100205.75;;;11.86;100.00
43119;BME280;28729;49.838;8.650;2024-02-14T13:45:23;100204.44;;;11.77;100.00
43119;BME280;28729;49.838;8.650;2024-02-14T13:49:26;100201.34;;;11.74;100.00
43119;BME280;28729;49.838;8.650;2024-02-14T13:53:28;100182.50;;;11.71;100.00
43119;BME280;28729;49.838;8.650;2024-02-14T13:57:31;100180.91;;;11.75;100.00
43119;BME280;28729;49.838;8.650;2024-02-14T14:01:33;100177.75;;;11.83;100.00
43119;BME280;28729;49.838;8.650;2024-02-14T14:05:35;100166.47;;;11.84;100.00
43119;BME280;28729;49.838;8.650;2024-02-14T14:09:37;100168.28;;;11.91;100.00
43119;BME280;28729;49.838;8.650;2024-02-14T14:13:38;100173.78;;;11.91;100.00
43119;BME280;28729;49.838;8.650;2024-02-14T14:17:41;100171.38;;;11.94;100.00
43119;BME280;28729;49.838;8.650;2024-02-14T14:21:43;100170.13;;;12.02;100.00
43119;BME280;28729;49.838;8.650;2024-02-14T14:25:44;100168.69;;;11.99;100.00
43119;BME280;28729;49.838;8.650;2024-02-14T14:29:46;100162.75;;;11.91;100.00
43119;BME280;28729;49.838;8.650;2024-02-14T14:33:48;100174.94;;;11.78;100.00
43119;BME280;28729;49.838;8.650;2024-02-14T14:37:50;100186.22;;;11.76;100.00
43119;BME280;28729;49.838;8.650;2024-02-14T14:41:53;100175.06;;;11.71;100.00
43119;BME280;28729;49.838;8.650;2024-02-14T14:45:58;100184.69;;;11.69;100.00
43119;BME280;28729;49.838;8.650;2024-02-14T14:50:00;100187.09;;;11.65;100.00
43119;BME280;28729;49.838;8.650;2024-02-14T14:54:02;100179.41;;;11.67;100.00
43119;BME280;28729;49.838;8.650;2024-02-14T14:58:13;100180.41;;;11.61;100.00
43119;BME280;28729;49.838;8.650;2024-02-14T15:02:15;100179.59;;;11.60;100.00
43119;BME280;28729;49.838;8.650;2024-02-14T15:06:17;100174.69;;;11.51;100.00
43119;BME280;28729;49.838;8.650;2024-02-14T15:10:19;100182.88;;;11.46;100.00
43119;BME280;28729;49.838;8.650;2024-02-14T15:14:21;100174.66;;;11.34;100.00
43119;BME280;28729;49.838;8.650;2024-02-14T15:18:23;100171.09;;;11.22;100.00
43119;BME280;28729;49.838;8.650;2024-02-14T15:22:24;100173.91;;;11.10;100.00
43119;BME280;28729;49.838;8.650;2024-02-14T15:26:29;100172.22;;;11.09;100.00
43119;BME280;28729;49.838;8.650;2024-02-14T15:30:31;100165.19;;;11.01;100.00
43119;BME280;28729;49.838;8.650;2024-02-14T15:34:52;100159.66;;;11.01;100.00
43119;BME280;28729;49.838;8.650;2024-02-14T15:38:54;100155.31;;;11.05;100.00
43119;BME280;28729;49.838;8.650;2024-02-14T15:42:59;100158.34;;;11.04;100.00
43119;BME280;28729;49.838;8.650;2024-02-14T15:47:03;100158.91;;;11.06;100.00
43119;BME280;28729;49.838;8.650;2024-02-14T15:51:04;100169.94;;;11.06;100.00
43119;BME280;28729;49.838;8.650;2024-02-14T15:55:07;100170.53;;;11.08;100.00
43119;BME280;28729;49.838;8.650;2024-02-14T15:59:11;100168.47;;;11.15;100.00
43119;BME280;28729;49.838;8.650;2024-02-14T16:03:16;100169.06;;;11.17;100.00
43119;BME280;28729;49.838;8.650;2024-02-14T16:07:18;100170.75;;;11.18;100.00
43119;BME280;28729;49.838;8.650;2024-02-14T16:11:20;100169.91;;;11.17;100.00
43119;BME280;28729;49.838;8.650;2024-02-14T16:15:22;100162.22;;;11.20;100.00
43119;BME280;28729;49.838;8.650;2024-02-14T16:19:24;100163.66;;;11.22;100.00
43119;BME280;28729;49.838;8.650;2024-02-14T16:23:26;100159.59;;;11.25;100.00
43119;BME280;28729;49.838;8.650;2024-02-14T16:27:28;100161.41;;;11.19;100.00
43119;BME280;28729;49.838;8.650;2024-02-14T16:31:30;100159.13;;;11.16;100.00
43119;BME280;28729;49.838;8.650;2024-02-14T16:35:32;100163.81;;;11.15;100.00
43119;BME280;28729;49.838;8.650;2024-02-14T16:39:34;100157.69;;;11.13;100.00
43119;BME280;28729;49.838;8.650;2024-02-14T16:43:44;100154.69;;;11.15;100.00
43119;BME280;28729;49.838;8.650;2024-02-14T16:47:46;100155.53;;;11.15;100.00
43119;BME280;28729;49.838;8.650;2024-02-14T16:51:48;100174.25;;;11.13;100.00
43119;BME280;28729;49.838;8.650;2024-02-14T16:55:50;100174.84;;;11.15;100.00
43119;BME280;28729;49.838;8.650;2024-02-14T16:59:51;100171.50;;;11.13;100.00
43119;BME280;28729;49.838;8.650;2024-02-14T17:03:55;100176.25;;;11.18;100.00
43119;BME280;28729;49.838;8.650;2024-02-14T17:08:05;100171.69;;;11.24;100.00
43119;BME280;28729;49.838;8.650;2024-02-14T17:12:08;100165.59;;;11.22;100.00
43119;BME280;28729;49.838;8.650;2024-02-14T17:16:10;100179.22;;;11.28;100.00
43119;BME280;28729;49.838;8.650;2024-02-14T17:20:13;100176.59;;;11.33;100.00
43119;BME280;28729;49.838;8.650;2024-02-14T17:24:15;100186.53;;;11.34;100.00
43119;BME280;28729;49.838;8.650;2024-02-14T17:28:16;100182.66;;;11.35;100.00
43119;BME280;28729;49.838;8.650;2024-02-14T17:32:18;100183.50;;;11.36;100.00
43119;BME280;28729;49.838;8.650;2024-02-14T17:36:37;100179.69;;;11.37;100.00
43119;BME280;28729;49.838;8.650;2024-02-14T17:40:39;100189.72;;;11.43;100.00
43119;BME280;28729;49.838;8.650;2024-02-14T17:44:40;100192.09;;;11.51;100.00
43119;BME280;28729;49.838;8.650;2024-02-14T17:48:42;100191.25;;;11.51;100.00
43119;BME280;28729;49.838;8.650;2024-02-14T17:52:44;100187.31;;;11.47;100.00
43119;BME280;28729;49.838;8.650;2024-02-14T17:56:47;100198.78;;;11.55;100.00
43119;BME280;28729;49.838;8.650;2024-02-14T18:00:48;100198.03;;;11.60;100.00
43119;BME280;28729;49.838;8.650;2024-02-14T18:04:50;100200.81;;;11.60;100.00
43119;BME280;28729;49.838;8.650;2024-02-14T18:08:54;100193.38;;;11.60;100.00
43119;BME280;28729;49.838;8.650;2024-02-14T18:12:58;100199.47;;;11.62;100.00
43119;BME280;28729;49.838;8.650;2024-02-14T18:17:00;100196.59;;;11.69;100.00
43119;BME280;28729;49.838;8.650;2024-02-14T18:21:02;100201.84;;;11.71;100.00
43119;BME280;28729;49.838;8.650;2024-02-14T18:25:06;100193.44;;;11.66;100.00
43119;BME280;28729;49.838;8.650;2024-02-14T18:29:08;100201.00;;;11.70;100.00
43119;BME280;28729;49.838;8.650;2024-02-14T18:33:12;100189.47;;;11.73;100.00
43119;BME280;28729;49.838;8.650;2024-02-14T18:37:14;100183.44;;;11.76;100.00
43119;BME280;28729;49.838;8.650;2024-02-14T18:41:15;100185.13;;;11.77;100.00
43119;BME280;28729;49.838;8.650;2024-02-14T18:45:17;100187.31;;;11.75;100.00
43119;BME280;28729;49.838;8.650;2024-02-14T18:49:19;100186.81;;;11.78;100.00
43119;BME280;28729;49.838;8.650;2024-02-14T18:53:22;100183.28;;;11.83;100.00
43119;BME280;28729;49.838;8.650;2024-02-14T18:57:24;100172.97;;;11.90;100.00
43119;BME280;28729;49.838;8.650;2024-02-14T19:01:25;100169.94;;;11.92;100.00
43119;BME280;28729;49.838;8.650;2024-02-14T19:05:27;100190.38;;;11.91;100.00
43119;BME280;28729;49.838;8.650;2024-02-14T19:09:29;100181.09;;;11.97;100.00
43119;BME280;28729;49.838;8.650;2024-02-14T19:13:33;100187.94;;;11.94;100.00
43119;BME280;28729;49.838;8.650;2024-02-14T19:17:35;100185.41;;;11.93;100.00
43119;BME280;28729;49.838;8.650;2024-02-14T19:21:37;100200.59;;;11.90;100.00
43119;BME280;28729;49.838;8.650;2024-02-14T19:25:39;100194.78;;;11.92;100.00
43119;BME280;28729;49.838;8.650;2024-02-14T19:29:40;100194.69;;;11.86;100.00
43119;BME280;28729;49.838;8.650;2024-02-14T19:33:42;100178.13;;;11.86;100.00
43119;BME280;28729;49.838;8.650;2024-02-14T19:37:46;100188.94;;;11.88;100.00
43119;BME280;28729;49.838;8.650;2024-02-14T19:41:48;100190.03;;;11.87;100.00
43119;BME280;28729;49.838;8.650;2024-02-14T19:45:50;100179.81;;;11.88;100.00
43119;BME280;28729;49.838;8.650;2024-02-14T19:49:52;100182.94;;;11.79;100.00
43119;BME280;28729;49.838;8.650;2024-02-14T19:53:54;100177.19;;;11.81;100.00
43119;BME280;28729;49.838;8.650;2024-02-14T19:57:56;100184.63;;;11.80;100.00
43119;BME280;28729;49.838;8.650;2024-02-14T20:02:00;100184.63;;;11.80;100.00
43119;BME280;28729;49.838;8.650;2024-02-14T20:06:05;100194.31;;;11.83;100.00
43119;BME280;28729;49.838;8.650;2024-02-14T20:10:09;100208.75;;;11.85;100.00
43119;BME280;28729;49.838;8.650;2024-02-14T20:14:11;100208.41;;;11.81;100.00
43119;BME280;28729;49.838;8.650;2024-02-14T20:18:13;100200.13;;;11.81;100.00
43119;BME280;28729;49.838;8.650;2024-02-14T20:22:17;100197.84;;;11.78;100.00
43119;BME280;28729;49.838;8.650;2024-02-14T20:26:21;100208.28;;;11.76;100.00
43119;BME280;28729;49.838;8.650;2024-02-14T20:30:23;100206.63;;;11.75;100.00
43119;BME280;28729;49.838;8.650;2024-02-14T20:34:30;100208.28;;;11.76;100.00
43119;BME280;28729;49.838;8.650;2024-02-14T20:38:32;100211.22;;;11.70;100.00
43119;BME280;28729;49.838;8.650;2024-02-14T20:42:34;100202.66;;;11.71;100.00
43119;BME280;28729;49.838;8.650;2024-02-14T20:46:36;100204.59;;;11.71;100.00
43119;BME280;28729;49.838;8.650;2024-02-14T20:50:42;100200.91;;;11.65;100.00
43119;BME280;28729;49.838;8.650;2024-02-14T20:54:43;100207.84;;;11.68;100.00
43119;BME280;28729;49.838;8.650;2024-02-14T20:58:45;100210.88;;;11.66;100.00
43119;BME280;28729;49.838;8.650;2024-02-14T21:03:03;100216.41;;;11.66;100.00
43119;BME280;28729;49.838;8.650;2024-02-14T21:07:05;100218.31;;;11.66;100.00
43119;BME280;28729;49.838;8.650;2024-02-14T21:11:07;100215.53;;;11.66;100.00